Time;durP1;ratioP1;P1;durP2;ratioP2;P2;SDS_P1;SDS_P2;PMS_P1;PMS_P2;Temp;Humidity;BMP_temperature;BMP_pressure;BME280_temperature;BME280_humidity;BME280_pressure;Samples;Min_cycle;Max_cycle;Signal;HPM_P1;HPM_P2
2021/05/23 00:02:25;;;;;;;1.90;1.70;;;12.40;99.90;;;;;;5026191;28;20477;-81
2021/05/23 00:04:52;;;;;;;3.30;2.30;;;12.40;99.90;;;;;;5024434;28;20521;-80
2021/05/23 00:07:25;;;;;;;3.67;1.90;;;12.30;99.90;;;;;;5024058;28;20455;-79
2021/05/23 00:09:53;;;;;;;2.47;1.90;;;12.50;99.90;;;;;;5026807;28;20435;-81
2021/05/23 00:12:19;;;;;;;3.20;1.83;;;12.40;99.90;;;;;;5024026;28;20462;-82
2021/05/23 00:14:45;;;;;;;2.17;1.73;;;12.10;99.90;;;;;;5022082;28;20479;-80
2021/05/23 00:17:11;;;;;;;2.03;1.80;;;12.30;99.90;;;;;;5021582;28;20447;-81
2021/05/23 00:19:38;;;;;;;4.53;2.10;;;;;;;;;;5021737;28;20515;-82
2021/05/23 00:22:06;;;;;;;2.07;1.83;;;12.30;99.90;;;;;;5021952;28;20803;-82
2021/05/23 00:24:32;;;;;;;1.93;1.83;;;;;;;;;;5024458;28;20471;-82
2021/05/23 00:26:58;;;;;;;2.77;2.23;;;12.20;99.90;;;;;;5028692;28;20443;-80
2021/05/23 00:29:25;;;;;;;2.50;2.10;;;;;;;;;;5034327;28;20450;-81
2021/05/23 00:31:53;;;;;;;2.90;2.70;;;12.10;99.90;;;;;;5029659;28;20439;-82
2021/05/23 00:34:19;;;;;;;3.10;2.53;;;12.20;99.90;;;;;;5023612;28;21010;-83
2021/05/23 00:36:45;;;;;;;3.47;2.23;;;;;;;;;;5032968;28;20451;-84
2021/05/23 00:39:13;;;;;;;2.40;2.20;;;12.10;99.90;;;;;;5033142;28;20444;-83
2021/05/23 00:41:39;;;;;;;3.00;2.80;;;12.00;99.90;;;;;;5031090;28;20431;-84
2021/05/23 00:44:05;;;;;;;2.40;1.90;;;12.10;99.90;;;;;;5031725;28;20471;-81
2021/05/23 00:46:31;;;;;;;2.20;1.97;;;12.00;99.90;;;;;;5031015;28;20439;-83
2021/05/23 00:48:58;;;;;;;2.80;2.60;;;12.00;99.90;;;;;;5028258;28;20448;-81
2021/05/23 00:51:24;;;;;;;2.80;2.60;;;12.00;99.90;;;;;;5024946;28;20439;-81
2021/05/23 00:53:50;;;;;;;2.43;2.23;;;;;;;;;;5024524;28;20825;-82
2021/05/23 00:56:19;;;;;;;2.53;2.33;;;11.90;99.90;;;;;;5024953;28;20447;-81
2021/05/23 00:58:46;;;;;;;2.67;2.47;;;11.90;99.90;;;;;;5022186;28;20554;-82
2021/05/23 01:02:02;;;;;;;2.90;2.70;;;11.90;99.90;;;;;;5022501;28;20452;-83
2021/05/23 01:04:30;;;;;;;2.80;2.13;;;12.00;99.90;;;;;;5020891;28;20468;-82
2021/05/23 01:06:56;;;;;;;2.73;2.47;;;;;;;;;;5020502;28;20458;-83
2021/05/23 01:09:23;;;;;;;2.40;2.20;;;12.00;99.90;;;;;;5020772;28;20443;-81
2021/05/23 01:12:25;;;;;;;3.30;2.87;;;12.00;99.90;;;;;;5023107;28;20447;-82
2021/05/23 01:14:55;;;;;;;2.70;2.33;;;12.10;99.90;;;;;;5027897;28;20482;-81
2021/05/23 01:17:27;;;;;;;3.90;2.63;;;12.10;99.90;;;;;;5031022;28;20475;-80
2021/05/23 01:20:08;;;;;;;2.70;2.50;;;12.10;99.90;;;;;;5032115;28;20427;-80
2021/05/23 01:22:40;;;;;;;2.90;2.50;;;11.80;99.90;;;;;;5030064;28;20519;-81
2021/05/23 01:25:10;;;;;;;3.80;2.40;;;11.80;99.90;;;;;;5028330;28;20467;-81
2021/05/23 01:27:44;;;;;;;2.17;2.00;;;12.10;99.90;;;;;;5030507;28;20439;-81
2021/05/23 01:30:13;;;;;;;2.80;2.60;;;12.10;99.90;;;;;;5028715;28;20439;-80
2021/05/23 01:32:43;;;;;;;4.97;2.60;;;11.90;99.90;;;;;;5029004;28;20448;-80
2021/05/23 01:35:16;;;;;;;2.70;2.50;;;12.40;99.90;;;;;;5028697;28;20505;-80
2021/05/23 01:37:47;;;;;;;3.10;2.90;;;11.90;99.90;;;;;;5027558;28;20440;-82
2021/05/23 01:40:17;;;;;;;2.33;2.20;;;12.00;99.90;;;;;;5026168;28;20461;-82
2021/05/23 01:42:44;;;;;;;3.60;2.73;;;11.80;99.90;;;;;;5022563;28;20462;-81
2021/05/23 01:45:11;;;;;;;3.23;2.93;;;11.80;99.90;;;;;;5019563;28;20475;-82
2021/05/23 01:47:38;;;;;;;4.90;2.87;;;11.70;99.90;;;;;;5021928;28;20452;-82
2021/05/23 01:50:05;;;;;;;2.70;2.50;;;11.60;99.90;;;;;;5019938;28;20866;-83
2021/05/23 01:52:31;;;;;;;2.80;2.60;;;11.60;99.90;;;;;;5019263;28;20790;-82
2021/05/23 01:54:58;;;;;;;4.10;3.00;;;11.50;99.90;;;;;;5019293;28;20977;-84
2021/05/23 01:57:25;;;;;;;2.67;2.47;;;11.50;99.90;;;;;;5020056;28;20450;-82
2021/05/23 01:59:51;;;;;;;2.90;2.63;;;11.50;99.90;;;;;;5020368;28;20513;-82
2021/05/23 02:02:17;;;;;;;3.43;3.10;;;;;;;;;;5019289;28;20430;-82
2021/05/23 02:04:43;;;;;;;3.10;2.90;;;11.40;99.90;;;;;;5019224;28;20986;-82
2021/05/23 02:07:10;;;;;;;3.73;2.90;;;11.10;99.90;;;;;;5018717;28;20455;-82
2021/05/23 02:09:36;;;;;;;2.90;2.20;;;11.30;99.90;;;;;;5019158;28;20454;-80
2021/05/23 02:12:03;;;;;;;2.97;2.77;;;11.30;99.90;;;;;;5019182;28;20462;-82
2021/05/23 02:14:30;;;;;;;3.53;2.87;;;11.30;99.90;;;;;;5019797;28;20498;-80
2021/05/23 02:16:56;;;;;;;4.50;4.10;;;;;;;;;;5019535;28;20475;-82
2021/05/23 02:19:23;;;;;;;3.07;2.87;;;11.30;99.90;;;;;;5019619;28;20447;-82
2021/05/23 02:21:50;;;;;;;2.90;2.47;;;11.30;99.90;;;;;;5019192;28;20974;-82
2021/05/23 02:24:16;;;;;;;2.30;2.10;;;11.30;99.90;;;;;;5020385;28;20470;-79
2021/05/23 02:26:43;;;;;;;2.93;2.73;;;11.20;99.90;;;;;;5029751;28;20447;-80
2021/05/23 02:29:09;;;;;;;3.37;3.17;;;11.20;99.90;;;;;;5027593;28;20456;-79
2021/05/23 02:31:36;;;;;;;3.63;2.57;;;10.40;99.90;;;;;;5029166;28;20447;-82
2021/05/23 02:34:03;;;;;;;2.90;2.70;;;11.10;99.90;;;;;;5026490;28;20502;-82
2021/05/23 02:36:29;;;;;;;2.60;2.50;;;;;;;;;;5026770;28;20455;-79
2021/05/23 02:38:55;;;;;;;2.77;2.67;;;10.90;99.90;;;;;;5024832;28;20525;-81
2021/05/23 02:41:22;;;;;;;2.93;2.70;;;;;;;;;;5017851;28;20451;-80
2021/05/23 02:43:48;;;;;;;3.83;2.63;;;10.70;99.90;;;;;;5018461;28;20467;-81
2021/05/23 02:46:14;;;;;;;2.67;2.47;;;;;;;;;;5018555;28;20807;-83
2021/05/23 02:48:41;;;;;;;2.90;2.70;;;10.80;99.90;;;;;;5018638;28;20463;-82
2021/05/23 02:51:08;;;;;;;3.33;3.13;;;10.90;99.90;;;;;;5018785;28;20471;-80
2021/05/23 02:53:34;;;;;;;3.10;2.63;;;10.70;99.90;;;;;;5017407;28;20451;-82
2021/05/23 02:56:00;;;;;;;3.10;2.70;;;;;;;;;;5017654;28;20941;-83
2021/05/23 02:58:27;;;;;;;2.83;2.63;;;10.90;99.90;;;;;;5017344;28;20581;-81
2021/05/23 03:00:53;;;;;;;3.23;2.90;;;10.80;99.90;;;;;;5018128;28;20462;-82
2021/05/23 03:03:19;;;;;;;3.17;2.80;;;10.80;99.90;;;;;;5019857;28;20497;-82
2021/05/23 03:05:48;;;;;;;3.30;3.10;;;10.80;99.90;;;;;;5018715;28;20455;-82
2021/05/23 03:08:14;;;;;;;3.10;2.90;;;;;;;;;;5018667;28;20455;-82
2021/05/23 03:10:43;;;;;;;4.80;2.47;;;10.70;99.90;;;;;;5018818;28;20447;-82
2021/05/23 03:13:10;;;;;;;4.20;3.90;;;10.80;99.90;;;;;;5018364;28;20487;-82
2021/05/23 03:15:38;;;;;;;4.43;2.70;;;10.70;99.90;;;;;;5018301;28;20487;-83
2021/05/23 03:18:05;;;;;;;2.87;2.57;;;10.70;99.90;;;;;;5017893;28;20440;-81
2021/05/23 03:20:33;;;;;;;2.40;2.30;;;10.70;99.90;;;;;;5019767;28;20439;-81
2021/05/23 03:23:00;;;;;;;3.03;2.77;;;10.70;99.90;;;;;;5017249;28;20447;-81
2021/05/23 03:25:27;;;;;;;3.10;2.70;;;10.80;99.90;;;;;;5017635;28;20477;-83
2021/05/23 03:27:54;;;;;;;3.10;2.73;;;10.70;99.90;;;;;;5017027;28;20436;-82
2021/05/23 03:30:23;;;;;;;3.33;3.03;;;10.30;99.90;;;;;;5018010;28;20521;-82
2021/05/23 03:32:49;;;;;;;2.93;2.73;;;;;;;;;;5018804;28;20458;-83
2021/05/23 03:35:16;;;;;;;4.23;3.33;;;10.70;99.90;;;;;;5039775;22;20490;-76
2021/05/23 03:37:43;;;;;;;3.63;3.20;;;10.70;99.90;;;;;;5033082;28;20484;-76
2021/05/23 03:40:14;;;;;;;2.50;2.40;;;10.80;99.90;;;;;;5032903;28;20446;-76
2021/05/23 03:42:40;;;;;;;5.03;2.93;;;10.70;99.90;;;;;;5033090;28;20852;-75
2021/05/23 03:45:08;;;;;;;2.37;2.23;;;10.70;99.90;;;;;;5034900;28;20466;-76
2021/05/23 03:47:35;;;;;;;4.93;2.73;;;10.70;99.90;;;;;;5036787;28;20860;-76
2021/05/23 03:50:01;;;;;;;3.23;2.90;;;10.70;99.90;;;;;;5036785;28;20442;-76
2021/05/23 03:52:27;;;;;;;2.70;2.37;;;10.70;99.90;;;;;;5036366;28;20941;-76
2021/05/23 03:54:53;;;;;;;4.80;2.70;;;10.70;99.90;;;;;;5036462;28;20521;-76
2021/05/23 03:57:20;;;;;;;2.40;2.20;;;10.80;99.90;;;;;;5036596;28;20482;-76
2021/05/23 03:59:46;;;;;;;2.63;2.43;;;10.70;99.90;;;;;;5036653;28;20480;-76
2021/05/23 04:02:13;;;;;;;2.80;2.53;;;10.60;99.90;;;;;;5036569;28;20453;-76
2021/05/23 04:04:48;;;;;;;4.77;3.13;;;10.70;99.90;;;;;;5037007;28;20486;-75
2021/05/23 04:07:18;;;;;;;3.10;2.90;;;10.70;99.90;;;;;;5036355;28;20777;-75
2021/05/23 04:09:44;;;;;;;2.93;2.63;;;10.70;99.90;;;;;;5036320;28;20453;-76
2021/05/23 04:12:13;;;;;;;2.70;2.37;;;10.70;99.90;;;;;;5036565;28;20458;-75
2021/05/23 04:14:40;;;;;;;2.50;2.30;;;10.60;99.90;;;;;;5035784;28;21023;-76
2021/05/23 04:17:06;;;;;;;3.00;2.70;;;10.60;99.90;;;;;;5036224;28;20482;-75
2021/05/23 04:19:32;;;;;;;2.33;2.23;;;10.70;99.90;;;;;;5036217;28;20828;-75
2021/05/23 04:21:58;;;;;;;4.10;2.70;;;10.80;99.90;;;;;;5036083;28;20482;-76
2021/05/23 04:24:24;;;;;;;8.07;2.43;;;10.70;99.90;;;;;;5035951;28;20467;-75
2021/05/23 04:26:50;;;;;;;2.33;2.13;;;10.70;99.90;;;;;;5035935;28;20485;-75
2021/05/23 04:29:16;;;;;;;2.53;2.33;;;10.80;99.90;;;;;;5036049;28;20500;-75
2021/05/23 04:31:43;;;;;;;4.03;2.53;;;10.90;99.90;;;;;;5035855;28;20454;-75
2021/05/23 04:34:09;;;;;;;2.57;2.37;;;11.00;99.90;;;;;;5035992;28;20469;-75
2021/05/23 04:36:36;;;;;;;2.40;2.30;;;11.00;99.90;;;;;;5035882;28;20439;-75
2021/05/23 04:39:03;;;;;;;2.90;2.70;;;11.00;99.90;;;;;;5036173;28;20446;-75
2021/05/23 04:41:29;;;;;;;5.73;2.60;;;11.00;99.90;;;;;;5035741;28;20478;-76
2021/05/23 04:43:55;;;;;;;3.13;2.90;;;10.70;99.90;;;;;;5035804;28;20447;-76
2021/05/23 04:46:22;;;;;;;2.80;2.60;;;10.90;99.90;;;;;;5035686;28;20470;-77
2021/05/23 04:48:49;;;;;;;2.70;2.50;;;11.00;99.90;;;;;;5035948;28;20819;-76
2021/05/23 04:51:15;;;;;;;2.63;2.43;;;11.10;99.90;;;;;;5035764;28;20428;-76
2021/05/23 04:53:41;;;;;;;6.97;4.13;;;11.20;99.90;;;;;;5035738;28;20485;-76
2021/05/23 04:56:07;;;;;;;2.50;2.30;;;11.20;99.90;;;;;;5035613;28;20478;-76
2021/05/23 04:58:34;;;;;;;4.17;2.70;;;11.00;99.90;;;;;;5035592;28;20462;-77
2021/05/23 05:01:00;;;;;;;8.13;3.10;;;11.40;99.90;;;;;;5035229;28;20988;-76
2021/05/23 05:03:26;;;;;;;2.43;2.20;;;11.10;99.90;;;;;;5035747;28;20504;-76
2021/05/23 05:05:53;;;;;;;2.80;2.60;;;11.30;99.90;;;;;;5035639;28;20470;-76
2021/05/23 05:08:19;;;;;;;2.30;2.20;;;11.30;99.90;;;;;;5035616;28;20877;-76
2021/05/23 05:10:45;;;;;;;2.50;2.13;;;11.30;99.90;;;;;;5035398;28;20490;-76
2021/05/23 05:13:11;;;;;;;2.23;2.13;;;11.40;99.90;;;;;;5034856;28;20450;-77
2021/05/23 05:15:37;;;;;;;2.33;1.80;;;11.50;99.90;;;;;;5035055;28;20586;-76
2021/05/23 05:18:04;;;;;;;3.83;2.03;;;11.60;99.90;;;;;;5035254;28;20820;-75
2021/05/23 05:20:30;;;;;;;2.10;1.90;;;11.50;99.90;;;;;;5034993;28;20528;-75
2021/05/23 05:22:57;;;;;;;2.30;2.10;;;11.50;99.90;;;;;;5034780;28;20508;-75
2021/05/23 05:25:23;;;;;;;5.43;2.10;;;11.60;99.90;;;;;;5035424;28;20852;-75
2021/05/23 05:27:49;;;;;;;2.87;2.20;;;11.50;99.90;;;;;;5035210;28;20453;-75
2021/05/23 05:30:16;;;;;;;2.33;2.20;;;11.60;99.90;;;;;;5035230;28;20454;-76
2021/05/23 05:32:42;;;;;;;4.30;2.60;;;11.60;99.90;;;;;;5037243;28;20461;-76
2021/05/23 05:35:09;;;;;;;2.43;1.83;;;11.60;99.90;;;;;;5035586;28;20465;-75
2021/05/23 05:37:35;;;;;;;2.37;2.17;;;11.50;99.90;;;;;;5035106;28;20482;-75
2021/05/23 05:40:04;;;;;;;2.70;2.33;;;11.50;99.90;;;;;;5035603;28;20450;-76
2021/05/23 05:42:30;;;;;;;3.13;2.17;;;11.50;99.90;;;;;;5035467;28;20545;-76
2021/05/23 05:44:56;;;;;;;1.90;1.80;;;11.60;99.90;;;;;;5034981;28;20462;-75
2021/05/23 05:47:22;;;;;;;1.70;1.60;;;11.60;99.90;;;;;;5035081;28;20442;-76
2021/05/23 05:49:49;;;;;;;2.07;1.40;;;11.70;99.90;;;;;;5034972;28;20446;-75
2021/05/23 05:52:15;;;;;;;3.33;1.93;;;11.80;99.90;;;;;;5034624;28;20485;-76
2021/05/23 05:54:41;;;;;;;2.40;2.20;;;11.80;99.90;;;;;;5034582;28;20471;-76
2021/05/23 05:57:08;;;;;;;4.63;2.20;;;11.70;99.90;;;;;;5034685;28;20496;-77
2021/05/23 05:59:34;;;;;;;2.20;2.03;;;11.70;99.90;;;;;;5034616;28;20450;-76
2021/05/23 06:02:00;;;;;;;3.90;1.73;;;11.70;99.90;;;;;;5034665;28;20450;-76
2021/05/23 06:04:26;;;;;;;4.57;3.00;;;11.60;99.90;;;;;;5034267;28;20510;-76
2021/05/23 06:06:52;;;;;;;2.03;1.83;;;11.50;99.90;;;;;;5034653;28;20505;-76
2021/05/23 06:09:18;;;;;;;2.00;1.80;;;11.90;99.90;;;;;;5036390;28;20453;-76
2021/05/23 06:11:44;;;;;;;2.20;2.00;;;11.60;99.90;;;;;;5037372;28;20446;-76
2021/05/23 06:14:11;;;;;;;5.23;2.20;;;11.60;99.90;;;;;;5036456;28;20462;-76
2021/05/23 06:16:37;;;;;;;2.83;1.90;;;11.60;99.90;;;;;;5035878;28;20447;-76
2021/05/23 06:19:03;;;;;;;2.10;2.00;;;11.50;99.90;;;;;;5035079;28;20482;-76
2021/05/23 06:21:29;;;;;;;4.90;2.87;;;11.50;99.90;;;;;;5035227;28;20485;-76
2021/05/23 06:23:55;;;;;;;5.30;3.77;;;11.60;99.90;;;;;;5035340;28;20505;-76
2021/05/23 06:26:23;;;;;;;2.17;2.07;;;11.50;99.90;;;;;;5035721;28;20521;-76
2021/05/23 06:28:50;;;;;;;3.15;1.95;;;11.50;99.90;;;;;;5033990;28;20441;-77
2021/05/23 06:31:17;;;;;;;2.60;1.55;;;11.40;99.90;;;;;;5033760;28;20437;-77
2021/05/23 06:33:43;;;;;;;5.73;2.80;;;;;;;;;;5034234;28;20237;-76
2021/05/23 06:36:11;;;;;;;2.15;1.90;;;11.60;99.90;;;;;;5032712;28;20511;-76
2021/05/23 06:38:37;;;;;;;1.90;1.80;;;11.50;99.90;;;;;;5033409;28;20689;-76
2021/05/23 06:41:04;;;;;;;2.83;2.30;;;11.60;99.90;;;;;;5033687;28;20453;-76
2021/05/23 06:43:30;;;;;;;2.23;2.13;;;11.60;99.90;;;;;;5033866;28;20863;-76
2021/05/23 06:45:56;;;;;;;2.23;2.03;;;11.50;99.90;;;;;;5033538;28;20828;-76
2021/05/23 06:48:23;;;;;;;2.20;2.00;;;11.60;99.90;;;;;;5033211;28;20450;-76
2021/05/23 06:50:51;;;;;;;4.40;2.27;;;11.50;99.90;;;;;;5034122;28;20770;-76
2021/05/23 06:53:17;;;;;;;2.67;2.43;;;11.50;99.90;;;;;;5033622;28;20442;-76
2021/05/23 06:55:43;;;;;;;2.70;2.50;;;11.50;99.90;;;;;;5033336;28;20843;-76
2021/05/23 06:58:09;;;;;;;2.37;2.00;;;11.40;99.90;;;;;;5033607;28;20517;-76
2021/05/23 07:00:35;;;;;;;2.20;2.00;;;11.40;99.90;;;;;;5033692;28;20469;-76
2021/05/23 07:03:01;;;;;;;3.20;2.33;;;11.30;99.90;;;;;;5033461;28;20450;-75
2021/05/23 07:05:28;;;;;;;3.22;2.15;;;11.40;99.90;;;;;;5032449;28;20488;-75
2021/05/23 07:07:54;;;;;;;2.70;2.50;;;11.30;99.90;;;;;;5033653;28;20204;-75
2021/05/23 07:10:21;;;;;;;2.90;2.30;;;11.30;99.90;;;;;;5033711;28;20432;-75
2021/05/23 07:12:47;;;;;;;3.00;2.00;;;11.30;99.90;;;;;;5033562;28;20478;-75
2021/05/23 07:15:13;;;;;;;2.17;2.07;;;11.30;99.90;;;;;;5033715;28;20470;-75
2021/05/23 07:17:39;;;;;;;1.97;1.70;;;11.40;99.90;;;;;;5033640;28;20474;-76
2021/05/23 07:20:06;;;;;;;4.90;3.47;;;11.40;99.90;;;;;;5035451;28;20442;-75
2021/05/23 07:22:33;;;;;;;2.90;2.10;;;11.50;99.90;;;;;;5037525;28;20508;-75
2021/05/23 07:24:59;;;;;;;3.57;2.33;;;11.70;99.90;;;;;;5037890;28;20494;-76
2021/05/23 07:27:26;;;;;;;1.90;1.75;;;11.80;99.90;;;;;;5036239;28;20829;-75
2021/05/23 07:29:52;;;;;;;2.30;2.00;;;12.00;99.90;;;;;;5037736;28;20235;-76
2021/05/23 07:32:18;;;;;;;2.20;2.00;;;12.00;99.90;;;;;;5037157;28;20964;-76
2021/05/23 07:34:45;;;;;;;3.85;1.40;;;12.40;99.90;;;;;;5035894;28;21021;-75
2021/05/23 07:37:11;;;;;;;2.30;2.00;;;12.20;99.90;;;;;;5036836;28;20257;-76
2021/05/23 07:39:38;;;;;;;2.07;1.73;;;12.30;99.90;;;;;;5036734;28;20457;-75
2021/05/23 07:42:05;;;;;;;1.77;1.67;;;12.40;99.90;;;;;;5036742;28;20450;-76
2021/05/23 07:44:31;;;;;;;3.33;1.70;;;12.50;99.90;;;;;;5037121;28;20505;-76
2021/05/23 07:46:57;;;;;;;2.70;2.13;;;12.40;99.90;;;;;;5036913;28;20500;-76
2021/05/23 07:49:23;;;;;;;1.83;1.73;;;12.50;99.90;;;;;;5036682;28;20827;-76
2021/05/23 07:51:49;;;;;;;1.90;1.80;;;12.60;99.90;;;;;;5037168;28;20457;-75
2021/05/23 07:54:15;;;;;;;2.27;1.70;;;12.90;99.90;;;;;;5036758;28;20505;-75
2021/05/23 07:56:42;;;;;;;3.90;1.90;;;13.00;99.90;;;;;;5036734;28;20450;-76
2021/05/23 07:59:08;;;;;;;2.13;1.90;;;13.30;99.90;;;;;;5036664;28;20450;-77
2021/05/23 08:01:34;;;;;;;2.27;1.80;;;;;;;;;;5036456;28;20450;-77
2021/05/23 08:04:01;;;;;;;3.33;1.73;;;13.10;99.90;;;;;;5036372;28;20493;-76
2021/05/23 08:06:27;;;;;;;5.63;1.90;;;13.40;99.90;;;;;;5036467;28;20446;-77
2021/05/23 08:08:53;;;;;;;2.23;2.10;;;13.50;99.90;;;;;;5036480;28;20450;-77
2021/05/23 08:11:19;;;;;;;2.40;2.10;;;13.60;99.90;;;;;;5036313;28;20525;-76
2021/05/23 08:13:46;;;;;;;2.27;1.87;;;13.40;99.90;;;;;;5036116;28;20442;-76
2021/05/23 08:16:12;;;;;;;2.23;1.80;;;13.70;99.90;;;;;;5036155;28;20879;-76
2021/05/23 08:18:39;;;;;;;4.27;2.73;;;13.70;99.90;;;;;;5036267;28;20457;-77
2021/05/23 08:21:06;;;;;;;2.37;1.60;;;13.90;99.90;;;;;;5035906;28;20434;-76
2021/05/23 08:23:32;;;;;;;2.50;1.47;;;13.80;99.90;;;;;;5036112;28;20450;-76
2021/05/23 08:26:00;;;;;;;5.40;1.80;;;13.80;99.90;;;;;;5035938;28;20474;-75
2021/05/23 08:28:29;;;;;;;1.80;1.70;;;13.90;99.90;;;;;;5036011;28;20450;-76
2021/05/23 08:30:56;;;;;;;2.20;2.00;;;13.90;99.90;;;;;;5035609;28;20450;-76
2021/05/23 08:33:22;;;;;;;5.07;1.90;;;14.00;99.90;;;;;;5035824;28;20478;-76
2021/05/23 08:35:48;;;;;;;2.73;1.50;;;14.00;99.90;;;;;;5035293;28;20485;-77
2021/05/23 08:38:14;;;;;;;3.83;1.60;;;14.20;99.90;;;;;;5035831;28;20446;-76
2021/05/23 08:40:41;;;;;;;2.27;1.53;;;14.20;99.90;;;;;;5035745;28;20820;-76
2021/05/23 08:43:09;;;;;;;2.40;1.43;;;14.30;99.90;;;;;;5035885;28;20819;-76
2021/05/23 08:45:35;;;;;;;1.60;1.50;;;14.30;99.90;;;;;;5035585;28;20470;-76
2021/05/23 08:48:03;;;;;;;3.13;1.80;;;14.40;99.90;;;;;;5035380;28;20509;-76
2021/05/23 08:50:29;;;;;;;1.70;1.60;;;14.50;99.90;;;;;;5036400;28;20573;-76
2021/05/23 08:52:57;;;;;;;2.00;1.90;;;14.60;99.90;;;;;;5035452;28;20446;-77
2021/05/23 08:55:24;;;;;;;2.80;2.60;;;14.50;99.90;;;;;;5035679;28;20486;-77
2021/05/23 08:57:52;;;;;;;2.43;2.20;;;14.50;99.90;;;;;;5035402;28;20805;-76
2021/05/23 09:00:19;;;;;;;3.40;2.20;;;14.60;99.90;;;;;;5035676;28;20474;-76
2021/05/23 09:02:54;;;;;;;3.47;1.83;;;14.40;99.90;;;;;;5035189;28;21041;-77
2021/05/23 09:05:31;;;;;;;3.20;1.70;;;14.10;99.90;;;;;;5035360;28;20516;-77
2021/05/23 09:07:59;;;;;;;1.83;1.73;;;14.10;99.90;;;;;;5035473;28;20921;-77
2021/05/23 09:10:28;;;;;;;3.97;2.00;;;14.10;99.90;;;;;;5035833;28;20976;-77
2021/05/23 09:13:00;;;;;;;2.10;1.83;;;14.10;99.90;;;;;;5035891;28;20488;-77
2021/05/23 09:15:28;;;;;;;3.83;2.27;;;14.10;99.90;;;;;;5035547;28;20518;-78
2021/05/23 09:18:05;;;;;;;1.70;1.60;;;14.40;99.90;;;;;;5036625;28;20539;-76
2021/05/23 09:20:34;;;;;;;1.97;1.63;;;15.10;99.90;;;;;;5036445;28;20434;-77
2021/05/23 09:23:01;;;;;;;1.80;1.50;;;14.80;99.90;;;;;;5035237;28;20508;-77
2021/05/23 09:25:32;;;;;;;2.03;1.93;;;14.80;99.90;;;;;;5035768;28;20517;-76
2021/05/23 09:27:59;;;;;;;2.10;1.90;;;14.70;99.90;;;;;;5035332;28;20441;-77
2021/05/23 09:30:28;;;;;;;2.60;2.13;;;15.10;99.90;;;;;;5034984;28;20485;-77
2021/05/23 09:32:55;;;;;;;2.13;2.03;;;14.90;99.90;;;;;;5034891;28;20465;-76
2021/05/23 09:35:22;;;;;;;2.60;2.40;;;;;;;;;;5066212;22;20471;-80
2021/05/23 09:37:58;;;;;;;2.60;2.40;;;;;;;;;;5052111;28;20430;-79
2021/05/23 09:40:26;;;;;;;2.40;2.20;;;14.50;99.90;;;;;;5050676;28;20431;-81
2021/05/23 09:42:55;;;;;;;2.30;2.20;;;14.50;99.90;;;;;;5050983;28;20813;-81
2021/05/23 09:45:22;;;;;;;3.00;2.23;;;14.50;99.90;;;;;;5051457;28;20462;-80
2021/05/23 09:47:56;;;;;;;4.07;1.87;;;14.90;99.90;;;;;;5051991;28;20454;-80
2021/05/23 09:50:37;;;;;;;2.40;2.20;;;14.80;99.90;;;;;;5051991;28;20462;-81
2021/05/23 09:53:04;;;;;;;3.50;2.70;;;15.00;99.90;;;;;;5053337;28;20487;-80
2021/05/23 09:55:30;;;;;;;2.03;1.83;;;15.00;99.90;;;;;;5051537;28;20470;-81
2021/05/23 09:57:57;;;;;;;2.00;1.80;;;15.10;99.90;;;;;;5048088;28;20451;-83
2021/05/23 10:00:23;;;;;;;2.27;1.90;;;15.30;99.90;;;;;;5046579;28;20446;-82
2021/05/23 10:02:54;;;;;;;2.60;2.40;;;15.30;99.90;;;;;;5046406;28;20449;-80
2021/05/23 10:05:20;;;;;;;3.30;2.53;;;15.90;99.90;;;;;;5046948;28;20459;-81
2021/05/23 10:07:46;;;;;;;1.40;1.30;;;15.70;99.90;;;;;;5039379;28;20984;-82
2021/05/23 10:10:14;;;;;;;2.30;1.50;;;15.80;99.90;;;;;;5040713;28;20498;-82
2021/05/23 10:12:41;;;;;;;1.30;1.20;;;16.00;99.90;;;;;;5040759;28;20446;-82
2021/05/23 10:15:11;;;;;;;1.87;1.30;;;15.60;99.90;;;;;;5040867;28;20560;-84
2021/05/23 10:17:38;;;;;;;1.23;1.03;;;15.50;99.90;;;;;;5041091;28;20454;-80
2021/05/23 10:20:09;;;;;;;1.30;1.20;;;14.70;99.90;;;;;;5042708;28;20454;-83
2021/05/23 10:22:36;;;;;;;2.20;1.20;;;15.30;99.90;;;;;;5047241;28;20457;-81
2021/05/23 10:25:07;;;;;;;2.23;1.17;;;15.50;99.90;;;;;;5045540;28;20463;-81
2021/05/23 10:27:38;;;;;;;1.50;1.40;;;15.50;99.90;;;;;;5045539;28;20449;-83
2021/05/23 10:30:06;;;;;;;1.10;1.00;;;15.90;99.90;;;;;;5043855;28;20441;-83
2021/05/23 10:32:35;;;;;;;0.90;0.90;;;15.90;99.90;;;;;;5047531;28;20481;-82
2021/05/23 10:35:13;;;;;;;1.00;1.00;;;16.10;99.90;;;;;;5043565;28;20482;-82
2021/05/23 10:37:41;;;;;;;2.07;1.00;;;15.90;99.90;;;;;;5044172;28;20462;-81
2021/05/23 10:40:21;;;;;;;0.80;0.80;;;15.80;99.90;;;;;;5044187;28;20442;-82
2021/05/23 10:42:53;;;;;;;1.73;1.30;;;15.60;99.90;;;;;;5040642;28;20936;-81
2021/05/23 10:45:24;;;;;;;1.60;1.47;;;15.90;99.90;;;;;;5040851;28;20462;-83
2021/05/23 10:47:51;;;;;;;2.70;1.20;;;15.70;99.90;;;;;;5040917;28;20434;-82
2021/05/23 10:50:17;;;;;;;1.37;1.27;;;16.30;99.90;;;;;;5042712;28;20454;-83
2021/05/23 10:52:44;;;;;;;2.50;2.30;;;16.30;99.90;;;;;;5043159;28;20454;-82
2021/05/23 10:55:13;;;;;;;1.57;1.40;;;16.30;99.90;;;;;;5046440;28;20485;-82
2021/05/23 10:57:46;;;;;;;1.20;1.10;;;16.40;99.90;;;;;;5045510;28;20462;-83
2021/05/23 11:00:19;;;;;;;1.23;1.00;;;16.20;99.90;;;;;;5047578;28;20506;-82
2021/05/23 11:02:46;;;;;;;1.20;1.10;;;;;;;;;;5049620;28;20881;-80
2021/05/23 11:05:14;;;;;;;1.67;1.07;;;16.00;99.90;;;;;;5051238;28;20437;-81
2021/05/23 11:07:41;;;;;;;1.77;1.63;;;15.90;99.90;;;;;;5050963;28;20443;-80
2021/05/23 11:10:18;;;;;;;2.93;1.20;;;15.90;99.90;;;;;;5051036;28;20442;-81
2021/05/23 11:12:52;;;;;;;2.13;1.13;;;15.90;99.90;;;;;;5052047;28;20481;-81
2021/05/23 11:15:20;;;;;;;2.27;1.33;;;;;;;;;;5050751;28;20493;-79
2021/05/23 11:17:49;;;;;;;1.40;1.30;;;16.20;99.90;;;;;;5050590;28;20525;-80
2021/05/23 11:20:17;;;;;;;2.93;1.10;;;16.30;99.90;;;;;;5048142;28;20446;-80
2021/05/23 11:22:46;;;;;;;1.57;1.47;;;16.30;99.90;;;;;;5049848;28;20449;-80
2021/05/23 11:25:13;;;;;;;1.30;1.20;;;16.30;99.90;;;;;;5051399;28;20479;-81
2021/05/23 11:27:40;;;;;;;1.53;1.43;;;;;;;;;;5044960;28;20514;-83
2021/05/23 11:30:12;;;;;;;1.50;1.40;;;16.70;99.90;;;;;;5044610;28;20516;-82
2021/05/23 11:32:39;;;;;;;1.40;1.30;;;16.60;99.90;;;;;;5049013;28;20433;-81
2021/05/23 11:35:07;;;;;;;1.47;1.37;;;16.50;99.90;;;;;;5049647;28;20490;-82
2021/05/23 11:37:38;;;;;;;1.23;1.13;;;16.40;99.90;;;;;;5044746;28;20450;-83
2021/05/23 11:40:09;;;;;;;2.50;1.40;;;16.40;99.90;;;;;;5041488;28;20454;-82
2021/05/23 11:42:42;;;;;;;1.30;1.20;;;16.20;99.90;;;;;;5040122;28;20431;-83
2021/05/23 11:45:20;;;;;;;1.43;1.10;;;16.30;99.90;;;;;;5041767;28;21028;-82
2021/05/23 11:47:50;;;;;;;1.40;1.30;;;16.10;99.90;;;;;;5043377;28;20913;-81
2021/05/23 11:50:24;;;;;;;1.33;1.23;;;15.80;99.90;;;;;;5049861;28;20430;-82
2021/05/23 11:52:55;;;;;;;1.57;1.47;;;;;;;;;;5051135;28;20844;-83
2021/05/23 11:55:23;;;;;;;2.67;1.50;;;15.80;99.90;;;;;;5044070;28;20486;-83
2021/05/23 11:57:50;;;;;;;1.40;1.30;;;;;;;;;;5044337;28;20442;-81
2021/05/23 12:00:21;;;;;;;1.77;1.67;;;15.90;99.90;;;;;;5045635;28;20450;-80
2021/05/23 12:02:56;;;;;;;1.43;1.33;;;15.90;99.90;;;;;;5043936;28;20435;-82
2021/05/23 12:05:24;;;;;;;1.60;1.50;;;16.00;99.90;;;;;;5043357;28;20565;-83
2021/05/23 12:07:52;;;;;;;2.67;1.90;;;15.90;99.90;;;;;;5047434;28;20975;-81
2021/05/23 12:10:23;;;;;;;3.20;1.70;;;16.10;99.90;;;;;;5044141;28;20450;-81
2021/05/23 12:12:51;;;;;;;1.40;1.30;;;16.50;99.90;;;;;;5046462;28;20534;-80
2021/05/23 12:15:18;;;;;;;1.40;1.30;;;16.40;99.90;;;;;;5045135;28;20486;-82
2021/05/23 12:17:53;;;;;;;1.00;1.00;;;17.50;99.90;;;;;;5045477;28;20454;-82
2021/05/23 12:20:19;;;;;;;2.20;1.43;;;;;;;;;;5048869;28;20456;-83
2021/05/23 12:22:50;;;;;;;2.10;1.37;;;16.00;99.90;;;;;;5051678;28;20451;-81
2021/05/23 12:25:17;;;;;;;1.60;1.50;;;;;;;;;;5054250;28;20443;-81
2021/05/23 12:27:46;;;;;;;1.37;1.27;;;16.00;99.90;;;;;;5049315;28;20929;-80
2021/05/23 12:30:14;;;;;;;1.20;1.10;;;16.10;99.90;;;;;;5054736;28;20462;-80
2021/05/23 12:32:43;;;;;;;1.80;1.03;;;16.10;99.90;;;;;;5054856;28;20435;-80
2021/05/23 12:35:15;;;;;;;2.60;1.57;;;15.60;99.90;;;;;;5052187;28;20948;-79
2021/05/23 12:37:47;;;;;;;1.67;1.57;;;16.40;99.90;;;;;;5053320;28;20446;-82
2021/05/23 12:40:15;;;;;;;1.87;1.77;;;16.30;99.90;;;;;;5052079;28;20431;-83
2021/05/23 12:42:42;;;;;;;1.70;1.60;;;;;;;;;;5046412;28;20964;-82
2021/05/23 12:45:09;;;;;;;1.20;1.10;;;16.40;99.90;;;;;;5046181;28;20467;-82
2021/05/23 12:47:47;;;;;;;1.40;1.30;;;16.20;99.90;;;;;;5046200;28;21011;-81
2021/05/23 12:50:14;;;;;;;1.73;1.60;;;16.10;99.90;;;;;;5047170;28;20450;-82
2021/05/23 12:52:52;;;;;;;1.37;1.27;;;16.10;99.90;;;;;;5046686;28;20473;-83
2021/05/23 12:55:18;;;;;;;1.43;1.33;;;16.20;99.90;;;;;;5045137;28;20490;-81
2021/05/23 12:57:49;;;;;;;1.60;1.50;;;16.40;99.90;;;;;;5051492;28;20506;-80
2021/05/23 13:00:17;;;;;;;1.70;1.30;;;15.90;99.90;;;;;;5052523;28;20434;-80